createdAt,value
2019-04-04T00:01:24.171Z,80.00
2019-04-04T00:03:53.187Z,80.10
2019-04-04T00:06:21.932Z,79.60
2019-04-04T00:08:50.729Z,79.30
2019-04-04T00:11:19.487Z,79.10
2019-04-04T00:13:48.266Z,79.00
2019-04-04T00:16:17.008Z,79.00
2019-04-04T00:18:45.806Z,78.70
2019-04-04T00:21:14.581Z,79.20
2019-04-04T00:23:43.605Z,79.10
2019-04-04T00:26:12.451Z,78.60
2019-04-04T00:28:41.221Z,78.40
2019-04-04T00:31:10.194Z,79.50
2019-04-04T00:33:39.211Z,79.20
2019-04-04T00:36:07.988Z,79.10
2019-04-04T00:38:37.966Z,78.80
2019-04-04T00:41:07.406Z,78.80
2019-04-04T00:43:36.171Z,78.80
2019-04-04T00:46:05.247Z,78.80
2019-04-04T00:48:34.174Z,78.60
2019-04-04T00:51:03.824Z,78.50
2019-04-04T00:53:32.583Z,77.80
2019-04-04T00:56:01.344Z,77.30
2019-04-04T00:58:30.344Z,77.30
2019-04-04T01:00:59.183Z,77.50
2019-04-04T01:03:28.108Z,78.10
2019-04-04T01:05:58.435Z,78.30
2019-04-04T01:08:27.426Z,79.00
2019-04-04T01:10:56.188Z,79.00
2019-04-04T01:13:27.523Z,78.40
2019-04-04T01:15:55.967Z,78.40
2019-04-04T01:18:24.715Z,78.40
2019-04-04T01:20:53.719Z,78.20
2019-04-04T01:23:22.473Z,77.80
2019-04-04T01:25:51.236Z,77.50
2019-04-04T01:28:20.256Z,77.20
2019-04-04T01:30:49.376Z,77.70
2019-04-04T01:33:19.743Z,77.80
2019-04-04T01:35:48.872Z,77.90
2019-04-04T01:38:17.633Z,77.80
2019-04-04T01:40:46.653Z,77.40
2019-04-04T01:43:15.400Z,77.20
2019-04-04T01:45:44.969Z,77.50
2019-04-04T01:48:13.883Z,78.30
2019-04-04T01:50:42.646Z,78.40
2019-04-04T01:53:11.651Z,78.60
2019-04-04T01:55:40.402Z,78.30
2019-04-04T01:58:09.988Z,78.30
2019-04-04T02:00:39.984Z,78.40
2019-04-04T02:03:08.995Z,78.10
2019-04-04T02:05:37.753Z,77.70
2019-04-04T02:08:06.765Z,77.70
2019-04-04T02:10:35.533Z,77.20
2019-04-04T02:13:04.530Z,77.40
2019-04-04T02:15:33.543Z,77.60
2019-04-04T02:18:02.534Z,77.50
2019-04-04T02:20:31.290Z,77.60
2019-04-04T02:23:01.483Z,77.80
2019-04-04T02:25:32.045Z,77.50
2019-04-04T02:28:01.734Z,78.00
2019-04-04T02:30:30.540Z,77.70
2019-04-04T02:33:00.511Z,77.60
2019-04-04T02:35:29.439Z,77.60
2019-04-04T02:37:58.611Z,77.50
2019-04-04T02:40:27.479Z,77.90
2019-04-04T02:42:56.372Z,77.90
2019-04-04T02:45:25.214Z,77.80
2019-04-04T02:47:53.967Z,77.70
2019-04-04T02:50:22.736Z,77.50
2019-04-04T02:52:51.597Z,77.80
2019-04-04T02:55:20.692Z,77.30
2019-04-04T02:57:49.548Z,77.50
2019-04-04T03:00:18.734Z,77.90
2019-04-04T03:02:47.732Z,78.60
2019-04-04T03:05:18.764Z,78.50
2019-04-04T03:07:47.341Z,78.40
2019-04-04T03:10:16.812Z,78.30
2019-04-04T03:12:45.986Z,78.10
2019-04-04T03:15:14.828Z,77.80
2019-04-04T03:17:43.587Z,78.10
2019-04-04T03:20:16.364Z,78.30
2019-04-04T03:22:43.002Z,78.10
2019-04-04T03:25:14.698Z,77.80
2019-04-04T03:27:42.319Z,78.30
2019-04-04T03:30:14.369Z,78.40
2019-04-04T03:32:42.174Z,78.60
2019-04-04T03:35:11.153Z,78.40
2019-04-04T03:37:41.099Z,77.90
2019-04-04T03:40:10.798Z,78.00
2019-04-04T03:42:43.967Z,78.50
2019-04-04T03:45:10.479Z,78.30
2019-04-04T03:47:43.424Z,77.80
2019-04-04T03:50:10.164Z,77.90
2019-04-04T03:52:43.380Z,77.70
2019-04-04T03:55:09.489Z,77.30
2019-04-04T03:57:38.576Z,77.90
2019-04-04T04:00:08.015Z,78.10
2019-04-04T04:02:36.815Z,78.10
2019-04-04T04:05:18.126Z,77.90
2019-04-04T04:07:48.043Z,78.00
2019-04-04T04:10:17.765Z,78.00
2019-04-04T04:12:46.533Z,77.70
2019-04-04T04:15:15.577Z,77.70
2019-04-04T04:17:45.655Z,77.70
2019-04-04T04:20:15.435Z,78.20
2019-04-04T04:22:44.497Z,78.10
2019-04-04T04:25:13.923Z,77.70
2019-04-04T04:27:47.168Z,77.60
2019-04-04T04:30:13.295Z,78.50
2019-04-04T04:32:42.168Z,78.60
2019-04-04T04:35:11.146Z,78.50
2019-04-04T04:37:40.213Z,78.50
2019-04-04T04:40:13.915Z,78.70
2019-04-04T04:42:39.576Z,78.80
2019-04-04T04:45:10.878Z,79.00
2019-04-04T04:47:39.103Z,79.10
2019-04-04T04:50:09.618Z,78.60
2019-04-04T04:52:39.169Z,78.80
2019-04-04T04:55:08.154Z,78.60
2019-04-04T04:57:38.190Z,78.40
2019-04-04T05:00:07.330Z,78.20
2019-04-04T05:02:36.133Z,78.70
2019-04-04T05:05:05.702Z,78.60
2019-04-04T05:07:34.819Z,78.60
2019-04-04T05:10:04.156Z,78.70
2019-04-04T05:12:33.000Z,78.80
2019-04-04T05:15:02.215Z,78.90
2019-04-04T05:17:31.656Z,78.60
2019-04-04T05:20:00.420Z,78.50
2019-04-04T05:22:29.232Z,78.90
2019-04-04T05:25:08.093Z,78.80
2019-04-04T05:27:28.510Z,78.30
2019-04-04T05:29:57.374Z,78.50
2019-04-04T05:32:26.691Z,78.30
2019-04-04T05:34:55.480Z,77.80
2019-04-04T05:37:27.236Z,77.60
2019-04-04T05:39:55.418Z,77.40
2019-04-04T05:42:24.272Z,77.40
2019-04-04T05:44:53.031Z,77.00
2019-04-04T05:47:23.307Z,76.40
2019-04-04T05:49:53.053Z,76.30
2019-04-04T05:52:22.065Z,75.60
2019-04-04T05:54:50.852Z,75.70
2019-04-04T05:57:20.025Z,75.60
2019-04-04T05:59:49.773Z,76.70
2019-04-04T06:02:18.595Z,76.40
2019-04-04T06:04:48.874Z,76.50
2019-04-04T06:07:18.217Z,76.60
2019-04-04T06:09:47.267Z,76.80
2019-04-04T06:12:16.198Z,76.10
2019-04-04T06:14:46.109Z,76.00
2019-04-04T06:17:14.967Z,76.30
2019-04-04T06:19:44.681Z,76.50
2019-04-04T06:22:14.256Z,76.90
2019-04-04T06:24:43.200Z,76.90
2019-04-04T06:27:12.140Z,77.10
2019-04-04T06:29:40.894Z,77.50
2019-04-04T06:32:09.666Z,77.00
2019-04-04T06:34:38.951Z,76.10
2019-04-04T06:37:07.737Z,76.10
2019-04-04T06:39:36.765Z,75.80
2019-04-04T06:42:05.598Z,75.30
2019-04-04T06:44:34.391Z,75.60
2019-04-04T06:47:03.178Z,76.30
2019-04-04T06:49:33.238Z,76.40
2019-04-04T06:52:02.738Z,76.90
2019-04-04T06:54:31.525Z,76.80
2019-04-04T06:57:03.525Z,76.80
2019-04-04T06:59:30.780Z,75.80
2019-04-04T07:02:00.032Z,75.80
2019-04-04T07:04:29.254Z,75.50
2019-04-04T07:06:59.284Z,75.30
2019-04-04T07:09:28.069Z,74.70
2019-04-04T07:11:57.069Z,75.60
2019-04-04T07:14:26.160Z,75.10
2019-04-04T07:16:54.988Z,75.20
2019-04-04T07:19:24.114Z,75.10
2019-04-04T07:21:52.874Z,75.50
2019-04-04T07:24:22.148Z,75.10
2019-04-04T07:26:50.938Z,75.90
2019-04-04T07:29:19.836Z,75.40
2019-04-04T07:31:48.592Z,74.70
2019-04-04T07:34:17.958Z,74.60
2019-04-04T07:36:49.093Z,74.80
2019-04-04T07:39:17.999Z,74.70
2019-04-04T07:41:46.827Z,74.80
2019-04-04T07:44:15.606Z,74.70
2019-04-04T07:46:45.714Z,75.60
2019-04-04T07:49:15.044Z,75.90
2019-04-04T07:51:44.072Z,75.30
2019-04-04T07:54:13.343Z,75.50
2019-04-04T07:56:43.520Z,75.40
2019-04-04T07:59:12.940Z,75.40
2019-04-04T08:01:50.850Z,76.10
2019-04-04T08:04:12.718Z,75.10
2019-04-04T08:06:42.013Z,75.50
2019-04-04T08:09:11.327Z,75.80
2019-04-04T08:11:40.563Z,75.80
2019-04-04T08:14:09.415Z,75.90
2019-04-04T08:16:38.165Z,76.10
2019-04-04T08:19:06.926Z,75.70
2019-04-04T08:21:35.678Z,76.00
2019-04-04T08:24:04.582Z,75.50
2019-04-04T08:26:33.807Z,75.10
2019-04-04T08:29:02.830Z,74.70
2019-04-04T08:31:31.583Z,75.80
2019-04-04T08:34:00.387Z,75.20
2019-04-04T08:36:29.428Z,75.40
2019-04-04T08:38:58.337Z,74.80
2019-04-04T08:41:27.620Z,74.70
2019-04-04T08:43:56.398Z,75.00
2019-04-04T08:46:25.171Z,75.10
2019-04-04T08:48:54.268Z,73.80
2019-04-04T08:51:23.387Z,74.90
2019-04-04T08:53:52.649Z,74.30
2019-04-04T08:56:21.515Z,74.50
2019-04-04T08:58:51.811Z,74.20
2019-04-04T09:01:20.990Z,74.00
2019-04-04T09:03:50.104Z,74.80
2019-04-04T09:06:19.199Z,73.90
2019-04-04T09:08:48.074Z,74.10
2019-04-04T09:11:17.188Z,73.10
2019-04-04T09:13:45.960Z,72.80
2019-04-04T09:16:14.820Z,73.20
2019-04-04T09:18:44.662Z,72.90
2019-04-04T09:21:13.492Z,72.80
2019-04-04T09:23:42.346Z,71.90
2019-04-04T09:26:11.179Z,71.50
2019-04-04T09:28:40.178Z,71.90
2019-04-04T09:31:09.271Z,71.60
2019-04-04T09:33:38.029Z,72.00
2019-04-04T09:36:06.900Z,72.60
2019-04-04T09:38:35.714Z,73.00
2019-04-04T09:41:04.911Z,73.00
2019-04-04T09:43:33.983Z,73.30
2019-04-04T09:46:03.756Z,73.90
2019-04-04T09:48:32.776Z,73.80
2019-04-04T09:51:01.872Z,73.80
2019-04-04T09:53:30.633Z,74.00
2019-04-04T09:55:59.651Z,73.40
2019-04-04T09:58:28.859Z,73.70
2019-04-04T10:00:57.923Z,73.70
2019-04-04T10:03:27.358Z,73.10
2019-04-04T10:05:56.719Z,73.80
2019-04-04T10:08:25.521Z,72.20
2019-04-04T10:10:54.303Z,73.10
2019-04-04T10:13:23.157Z,73.60
2019-04-04T10:15:52.155Z,73.90
2019-04-04T10:18:21.399Z,73.00
2019-04-04T10:20:50.658Z,74.00
2019-04-04T10:23:19.659Z,72.60
2019-04-04T10:25:48.503Z,73.10
2019-04-04T10:28:17.260Z,74.70
2019-04-04T10:30:46.273Z,74.70
2019-04-04T10:33:15.265Z,73.60
2019-04-04T10:35:44.400Z,73.40
2019-04-04T10:38:13.150Z,72.80
2019-04-04T10:40:42.190Z,73.50
2019-04-04T10:43:11.189Z,73.30
2019-04-04T10:45:40.312Z,72.90
2019-04-04T10:48:09.348Z,72.90
2019-04-04T10:50:38.406Z,72.30
2019-04-04T10:53:07.162Z,71.90
2019-04-04T10:55:36.022Z,71.70
2019-04-04T10:58:04.988Z,71.70
2019-04-04T11:00:34.042Z,71.60
2019-04-04T11:03:03.287Z,70.90
2019-04-04T11:05:35.093Z,69.90
2019-04-04T11:08:02.638Z,69.90
2019-04-04T11:10:31.744Z,71.00
2019-04-04T11:13:02.919Z,70.10
2019-04-04T11:15:31.851Z,70.90
2019-04-04T11:18:00.920Z,71.40
2019-04-04T11:20:29.931Z,71.90
2019-04-04T11:22:58.771Z,72.20
2019-04-04T11:25:27.786Z,72.90
2019-04-04T11:27:56.546Z,72.70
2019-04-04T11:30:25.663Z,72.80
2019-04-04T11:32:54.655Z,73.00
2019-04-04T11:35:23.754Z,73.10
2019-04-04T11:37:52.755Z,73.70
2019-04-04T11:40:21.813Z,73.60
2019-04-04T11:42:51.067Z,73.20
2019-04-04T11:45:20.160Z,73.10
2019-04-04T11:47:49.176Z,72.80
2019-04-04T11:50:18.120Z,73.40
2019-04-04T11:52:46.954Z,73.90
2019-04-04T11:55:16.231Z,74.20
2019-04-04T11:57:45.042Z,74.80
2019-04-04T12:00:18.363Z,74.90
2019-04-04T12:02:47.357Z,75.20
2019-04-04T12:05:16.398Z,75.60
2019-04-04T12:07:45.889Z,75.50
2019-04-04T12:10:16.258Z,77.00
2019-04-04T12:12:45.504Z,76.20
2019-04-04T12:15:14.409Z,76.60
2019-04-04T12:17:43.176Z,77.20
2019-04-04T12:20:12.101Z,75.80
2019-04-04T12:22:41.117Z,75.60
2019-04-04T12:25:10.367Z,75.40
2019-04-04T12:27:39.375Z,75.80
2019-04-04T12:30:08.990Z,76.80
2019-04-04T12:32:38.020Z,76.70
2019-04-04T12:35:07.180Z,77.00
2019-04-04T12:37:36.242Z,77.10
2019-04-04T12:40:05.284Z,76.80
2019-04-04T12:42:34.614Z,76.50
2019-04-04T12:45:05.399Z,76.00
2019-04-04T12:47:34.561Z,76.90
2019-04-04T12:50:03.450Z,77.50
2019-04-04T12:52:32.472Z,77.30
2019-04-04T12:55:02.056Z,77.10
2019-04-04T12:57:31.081Z,76.60
2019-04-04T13:00:00.111Z,76.00
2019-04-04T13:02:28.883Z,75.70
2019-04-04T13:04:57.671Z,75.60
2019-04-04T13:07:26.719Z,75.50
2019-04-04T13:09:56.203Z,76.40
2019-04-04T13:12:24.987Z,76.40
2019-04-04T13:14:54.234Z,76.40
2019-04-04T13:17:23.737Z,75.90
2019-04-04T13:19:52.751Z,76.00
2019-04-04T13:22:21.768Z,75.90
2019-04-04T13:24:50.781Z,76.00
2019-04-04T13:27:19.803Z,76.30
2019-04-04T13:29:49.058Z,76.20
2019-04-04T13:32:18.137Z,76.00
2019-04-04T13:34:58.394Z,76.00
2019-04-04T13:37:17.852Z,76.60
2019-04-04T13:39:46.872Z,77.10
2019-04-04T13:42:15.710Z,76.70
2019-04-04T13:44:45.082Z,77.30
2019-04-04T13:47:14.170Z,78.30
2019-04-04T13:49:44.502Z,78.80
2019-04-04T13:52:13.878Z,78.80
2019-04-04T13:54:42.998Z,80.10
2019-04-04T13:57:12.251Z,80.70
2019-04-04T13:59:41.894Z,81.10
2019-04-04T14:02:10.756Z,81.10
2019-04-04T14:04:39.837Z,81.80
2019-04-04T14:07:08.912Z,81.60
2019-04-04T14:09:37.723Z,82.00
2019-04-04T14:12:06.896Z,82.30
2019-04-04T14:14:36.287Z,82.30
2019-04-04T14:17:05.131Z,82.50
2019-04-04T14:19:33.937Z,82.00
2019-04-04T14:22:02.700Z,81.90
2019-04-04T14:24:31.713Z,81.50
2019-04-04T14:27:00.665Z,80.90
2019-04-04T14:29:29.914Z,80.80
2019-04-04T14:31:58.738Z,80.30
2019-04-04T14:34:27.748Z,80.00
2019-04-04T14:36:56.810Z,79.70
2019-04-04T14:39:26.152Z,79.50
2019-04-04T14:41:55.293Z,79.20
2019-04-04T14:44:24.669Z,79.60
2019-04-04T14:46:53.433Z,78.80
2019-04-04T14:49:22.244Z,78.50
2019-04-04T14:51:51.062Z,77.90
2019-04-04T14:54:20.370Z,77.70
2019-04-04T14:56:49.940Z,77.50
2019-04-04T14:59:18.969Z,77.20
2019-04-04T15:01:48.237Z,77.00
2019-04-04T15:04:17.804Z,76.60
2019-04-04T15:06:46.748Z,76.20
2019-04-04T15:09:15.856Z,76.30
2019-04-04T15:11:47.726Z,76.10
2019-04-04T15:14:16.857Z,77.20
2019-04-04T15:16:46.112Z,77.50
2019-04-04T15:19:16.491Z,77.80
2019-04-04T15:21:45.331Z,77.70
2019-04-04T15:24:14.100Z,77.50
2019-04-04T15:26:43.120Z,77.10
2019-04-04T15:29:12.683Z,76.90
2019-04-04T15:31:41.536Z,77.00
2019-04-04T15:34:10.598Z,77.10
2019-04-04T15:36:40.018Z,77.10
2019-04-04T15:39:08.796Z,77.40
2019-04-04T15:41:37.812Z,77.30
2019-04-04T15:44:06.919Z,77.10
2019-04-04T15:46:36.045Z,77.30
2019-04-04T15:49:05.192Z,77.40
2019-04-04T15:51:34.223Z,77.60
2019-04-04T15:54:03.303Z,77.60
2019-04-04T15:56:32.403Z,77.30
2019-04-04T15:59:01.442Z,77.20
2019-04-04T16:01:30.213Z,76.90
2019-04-04T16:03:58.999Z,76.80
2019-04-04T16:06:28.119Z,76.50
2019-04-04T16:08:57.693Z,76.40
2019-04-04T16:11:26.875Z,76.80
2019-04-04T16:13:55.711Z,77.20
2019-04-04T16:16:24.734Z,77.80
2019-04-04T16:18:53.788Z,77.70
2019-04-04T16:21:22.883Z,77.70
2019-04-04T16:23:51.736Z,77.50
2019-04-04T16:26:20.741Z,78.00
2019-04-04T16:28:49.890Z,77.90
2019-04-04T16:31:19.558Z,78.00
2019-04-04T16:33:48.936Z,77.90
2019-04-04T16:36:18.261Z,77.90
2019-04-04T16:38:47.071Z,77.80
2019-04-04T16:41:16.159Z,77.50
2019-04-04T16:43:45.412Z,77.90
2019-04-04T16:46:14.504Z,77.80
2019-04-04T16:48:43.627Z,77.80
2019-04-04T16:51:12.636Z,77.80
2019-04-04T16:53:41.407Z,77.60
2019-04-04T16:56:10.449Z,77.80
2019-04-04T16:58:39.543Z,77.60
2019-04-04T17:01:08.632Z,77.60
2019-04-04T17:03:37.399Z,77.70
2019-04-04T17:06:06.579Z,77.70
2019-04-04T17:08:35.371Z,77.70
2019-04-04T17:11:04.534Z,77.90
2019-04-04T17:13:33.576Z,77.90
2019-04-04T17:16:02.444Z,77.70
2019-04-04T17:18:31.206Z,77.80
2019-04-04T17:21:00.052Z,77.70
2019-04-04T17:23:29.307Z,77.30
2019-04-04T17:25:58.155Z,77.40
2019-04-04T17:28:27.032Z,77.80
2019-04-04T17:30:55.855Z,77.60
2019-04-04T17:33:25.239Z,77.20
2019-04-04T17:35:54.423Z,77.20
2019-04-04T17:38:23.291Z,77.10
2019-04-04T17:40:52.168Z,77.20
2019-04-04T17:43:21.289Z,77.10
2019-04-04T17:45:50.557Z,77.00
2019-04-04T17:48:19.882Z,77.50
2019-04-04T17:50:49.310Z,77.90
2019-04-04T17:53:18.368Z,77.50
2019-04-04T17:55:48.485Z,77.30
2019-04-04T17:58:18.342Z,76.90
2019-04-04T18:00:47.211Z,76.70
2019-04-04T18:03:16.287Z,76.50
2019-04-04T18:05:45.055Z,76.80
2019-04-04T18:08:13.871Z,76.90
2019-04-04T18:10:42.975Z,77.10
2019-04-04T18:13:11.742Z,77.20
2019-04-04T18:15:40.826Z,77.90
2019-04-04T18:18:10.079Z,77.80
2019-04-04T18:20:38.964Z,78.30
2019-04-04T18:23:07.757Z,77.70
2019-04-04T18:25:36.874Z,77.50
2019-04-04T18:28:05.718Z,77.20
2019-04-04T18:30:34.487Z,77.20
2019-04-04T18:33:03.655Z,77.00
2019-04-04T18:35:33.680Z,76.80
2019-04-04T18:38:02.542Z,76.60
2019-04-04T18:40:31.651Z,76.80
2019-04-04T18:43:00.675Z,76.80
2019-04-04T18:45:29.728Z,77.00
2019-04-04T18:47:58.483Z,76.90
2019-04-04T18:50:27.334Z,77.30
2019-04-04T18:52:56.098Z,77.20
2019-04-04T18:55:24.895Z,77.00
2019-04-04T18:57:53.683Z,77.10
2019-04-04T19:00:22.851Z,76.90
2019-04-04T19:02:51.648Z,76.70
2019-04-04T19:05:20.688Z,76.40
2019-04-04T19:07:49.778Z,76.60
2019-04-04T19:10:19.249Z,76.70
2019-04-04T19:12:48.094Z,76.60
2019-04-04T19:15:17.372Z,76.80
2019-04-04T19:17:46.474Z,76.70
2019-04-04T19:20:15.814Z,76.70
2019-04-04T19:22:44.883Z,77.00
2019-04-04T19:25:14.449Z,77.20
2019-04-04T19:27:43.647Z,77.40
2019-04-04T19:30:13.400Z,77.60
2019-04-04T19:32:42.173Z,77.60
2019-04-04T19:35:11.184Z,77.70
2019-04-04T19:37:40.190Z,78.10
2019-04-04T19:40:09.572Z,78.40
2019-04-04T19:42:38.745Z,78.20
2019-04-04T19:45:07.919Z,77.90
2019-04-04T19:47:36.999Z,77.90
2019-04-04T20:03:44.995Z,78.70
2019-04-04T20:06:13.803Z,79.40
2019-04-04T20:08:42.802Z,80.20
2019-04-04T20:11:11.717Z,80.40
2019-04-04T20:13:41.028Z,79.80
2019-04-04T20:16:12.263Z,80.00
2019-04-04T20:18:40.591Z,80.10
2019-04-04T20:21:09.928Z,79.80
2019-04-04T20:23:38.685Z,80.20
2019-04-04T20:26:07.834Z,80.20
2019-04-04T20:28:39.921Z,80.10
2019-04-04T20:31:07.522Z,79.40
2019-04-04T20:33:36.571Z,79.20
2019-04-04T20:36:05.637Z,79.80
2019-04-04T20:38:34.670Z,80.00
2019-04-04T20:41:03.955Z,80.50
2019-04-04T20:43:42.749Z,80.50
2019-04-04T20:46:03.315Z,80.40
2019-04-04T20:48:32.621Z,80.40
2019-04-04T20:51:01.786Z,80.30
2019-04-04T20:53:30.921Z,80.20
2019-04-04T20:55:59.708Z,80.30
2019-04-04T20:58:28.628Z,80.70
2019-04-04T21:00:57.451Z,80.80
2019-04-04T21:03:26.564Z,80.60
2019-04-04T21:05:55.318Z,80.30
2019-04-04T21:08:24.267Z,80.30
2019-04-04T21:10:53.613Z,80.20
2019-04-04T21:13:22.374Z,81.00
2019-04-04T21:15:51.180Z,81.40
2019-04-04T21:18:19.976Z,82.00
2019-04-04T21:20:48.779Z,81.90
2019-04-04T21:23:17.826Z,81.50
2019-04-04T21:25:46.737Z,82.40
2019-04-04T21:28:15.757Z,82.50
2019-04-04T21:30:44.671Z,82.30
2019-04-04T21:33:13.535Z,81.80
2019-04-04T21:35:42.680Z,81.60
2019-04-04T21:38:11.928Z,81.50
2019-04-04T21:40:40.992Z,82.00
2019-04-04T21:43:09.826Z,81.90
2019-04-04T21:45:38.590Z,82.20
2019-04-04T21:48:07.368Z,82.60
2019-04-04T21:50:38.266Z,82.90
2019-04-04T21:53:07.113Z,82.70
2019-04-04T21:55:36.589Z,82.40
2019-04-04T21:58:05.611Z,82.70
2019-04-04T22:00:41.220Z,83.30
2019-04-04T22:03:10.273Z,83.00
2019-04-04T22:05:39.756Z,82.40
2019-04-04T22:08:08.590Z,82.70
2019-04-04T22:10:37.383Z,82.70
2019-04-04T22:13:06.239Z,82.40
2019-04-04T22:15:35.592Z,82.10
2019-04-04T22:18:04.545Z,82.00
2019-04-04T22:20:33.306Z,81.80
2019-04-04T22:23:02.993Z,82.20
2019-04-04T22:25:32.042Z,82.10
2019-04-04T22:28:00.842Z,82.00
2019-04-04T22:30:29.991Z,82.40
2019-04-04T22:33:01.714Z,83.00
2019-04-04T22:35:29.975Z,82.80
2019-04-04T22:37:58.739Z,83.00
2019-04-04T22:40:27.562Z,83.00
2019-04-04T22:42:56.677Z,82.80
2019-04-04T22:45:25.436Z,82.30
2019-04-04T22:47:54.283Z,82.40
2019-04-04T22:50:23.591Z,82.40
2019-04-04T22:52:52.843Z,83.00
2019-04-04T22:55:22.451Z,83.00
2019-04-04T22:57:51.245Z,83.00
2019-04-04T23:00:20.161Z,82.60
2019-04-04T23:02:49.163Z,82.50
2019-04-04T23:05:18.239Z,82.30
2019-04-04T23:07:47.395Z,82.10
2019-04-04T23:10:16.292Z,81.80
2019-04-04T23:12:45.077Z,81.70
2019-04-04T23:15:13.924Z,81.80
2019-04-04T23:17:45.354Z,82.40
2019-04-04T23:20:13.585Z,82.80
2019-04-04T23:22:52.159Z,82.70
2019-04-04T23:25:13.109Z,82.50
2019-04-04T23:27:42.031Z,82.40
2019-04-04T23:30:11.231Z,82.00
2019-04-04T23:32:39.983Z,82.60
2019-04-04T23:35:09.016Z,82.10
2019-04-04T23:37:38.239Z,81.70
2019-04-04T23:40:07.431Z,81.80
2019-04-04T23:42:36.504Z,81.90
2019-04-04T23:45:05.999Z,81.70
2019-04-04T23:47:42.820Z,81.50
2019-04-04T23:50:05.784Z,80.90
2019-04-04T23:52:34.803Z,81.00
2019-04-04T23:55:03.924Z,81.30
2019-04-04T23:57:32.725Z,80.90
